createdAt,value
2022-08-19T00:01:52.874Z,5.10
2022-08-19T00:04:25.360Z,5.27
2022-08-19T00:06:52.286Z,5.28
2022-08-19T00:09:19.858Z,4.85
2022-08-19T00:11:46.961Z,5.20
2022-08-19T00:14:14.440Z,5.97
2022-08-19T00:16:42.264Z,5.35
2022-08-19T00:19:09.102Z,5.40
2022-08-19T00:21:40.318Z,5.95
2022-08-19T00:24:10.634Z,7.72
2022-08-19T00:26:37.631Z,5.90
2022-08-19T00:29:04.982Z,7.68
2022-08-19T00:31:32.421Z,6.68
2022-08-19T00:33:59.062Z,6.93
2022-08-19T00:36:25.689Z,5.43
2022-08-19T00:38:53.864Z,5.15
2022-08-19T00:41:22.174Z,6.30
2022-08-19T00:44:09.644Z,6.57
2022-08-19T00:46:37.668Z,6.82
2022-08-19T00:49:15.514Z,5.32
2022-08-19T00:51:42.139Z,6.05
2022-08-19T00:54:10.063Z,5.87
2022-08-19T00:56:36.797Z,5.40
2022-08-19T00:59:03.760Z,5.62
2022-08-19T01:01:30.469Z,6.00
2022-08-19T01:03:58.737Z,5.35
2022-08-19T01:06:26.571Z,5.07
2022-08-19T01:08:53.340Z,5.68
2022-08-19T01:11:19.949Z,6.28
2022-08-19T01:13:49.760Z,6.62
2022-08-19T01:16:16.951Z,5.03
2022-08-19T01:18:43.690Z,7.20
2022-08-19T01:21:31.443Z,5.35
2022-08-19T01:23:58.023Z,5.57
2022-08-19T01:26:25.208Z,7.45
2022-08-19T01:28:54.342Z,5.72
2022-08-19T01:31:27.834Z,5.37
2022-08-19T01:33:56.098Z,7.05
2022-08-19T01:36:26.551Z,5.80
2022-08-19T01:38:53.329Z,5.37
2022-08-19T01:41:19.919Z,5.43
2022-08-19T01:44:13.745Z,6.25
2022-08-19T01:46:33.339Z,7.18
2022-08-19T01:49:00.040Z,7.37
2022-08-19T01:51:26.788Z,5.72
2022-08-19T01:53:54.153Z,6.12
2022-08-19T01:56:20.792Z,5.18
2022-08-19T01:58:59.561Z,5.85
2022-08-19T02:01:26.188Z,5.80
2022-08-19T02:03:57.996Z,6.05
2022-08-19T02:06:26.841Z,6.35
2022-08-19T02:08:57.422Z,5.90
2022-08-19T02:11:29.090Z,6.22
2022-08-19T02:13:55.743Z,5.65
2022-08-19T02:16:22.330Z,5.70
2022-08-19T02:18:51.670Z,5.65
2022-08-19T02:21:19.378Z,8.05
2022-08-19T02:23:46.195Z,5.22
2022-08-19T02:26:13.384Z,5.65
2022-08-19T02:28:40.883Z,5.62
2022-08-19T02:31:11.948Z,6.72
2022-08-19T02:33:38.553Z,6.75
2022-08-19T02:36:06.573Z,5.60
2022-08-19T02:38:33.336Z,5.37
2022-08-19T02:41:01.938Z,8.02
2022-08-19T02:43:29.230Z,5.15
2022-08-19T02:46:01.323Z,5.20
2022-08-19T02:48:27.931Z,5.50
2022-08-19T02:50:57.393Z,6.28
2022-08-19T02:53:24.910Z,8.25
2022-08-19T02:55:51.802Z,7.12
2022-08-19T02:58:18.482Z,5.37
2022-08-19T03:00:49.408Z,7.05
2022-08-19T03:03:16.365Z,7.22
2022-08-19T03:05:46.837Z,6.28
2022-08-19T03:08:15.231Z,5.85
2022-08-19T03:10:46.025Z,7.12
2022-08-19T03:13:14.039Z,6.68
2022-08-19T03:15:42.345Z,7.25
2022-08-19T03:18:09.002Z,5.95
2022-08-19T03:20:44.483Z,7.43
2022-08-19T03:23:11.894Z,5.60
2022-08-19T03:25:41.772Z,5.68
2022-08-19T03:28:08.374Z,6.00
2022-08-19T03:30:34.935Z,6.32
2022-08-19T03:33:01.546Z,8.13
2022-08-19T03:35:28.655Z,6.95
2022-08-19T03:37:55.227Z,6.80
2022-08-19T03:40:21.849Z,6.12
2022-08-19T03:42:49.211Z,5.93
2022-08-19T03:45:16.519Z,6.43
2022-08-19T03:47:43.108Z,6.90
2022-08-19T03:50:10.072Z,6.82
2022-08-19T03:52:36.952Z,6.62
2022-08-19T03:55:04.122Z,6.85
2022-08-19T03:57:31.967Z,6.72
2022-08-19T04:00:12.594Z,5.70
2022-08-19T04:02:41.267Z,7.03
2022-08-19T04:05:09.125Z,6.30
2022-08-19T04:07:35.759Z,6.22
2022-08-19T04:10:02.386Z,5.87
2022-08-19T04:12:29.396Z,7.53
2022-08-19T04:14:55.953Z,6.20
2022-08-19T04:17:23.407Z,7.25
2022-08-19T04:19:49.988Z,6.57
2022-08-19T04:22:16.564Z,5.68
2022-08-19T04:24:43.139Z,6.50
2022-08-19T04:27:09.757Z,5.90
2022-08-19T04:29:36.326Z,6.60
2022-08-19T04:32:09.084Z,5.93
2022-08-19T04:34:36.387Z,7.20
2022-08-19T04:37:22.939Z,7.90
2022-08-19T04:40:07.861Z,6.95
2022-08-19T04:42:40.537Z,8.13
2022-08-19T04:45:09.287Z,6.40
2022-08-19T04:47:48.253Z,6.75
2022-08-19T04:50:25.219Z,6.62
2022-08-19T04:52:52.502Z,6.03
2022-08-19T04:55:19.474Z,6.82
2022-08-19T04:57:46.066Z,6.18
2022-08-19T05:00:12.994Z,7.75
2022-08-19T05:02:39.753Z,6.78
2022-08-19T05:05:07.474Z,7.95
2022-08-19T05:07:34.130Z,5.90
2022-08-19T05:10:00.795Z,6.35
2022-08-19T05:12:29.560Z,6.70
2022-08-19T05:14:57.708Z,5.82
2022-08-19T05:17:27.674Z,9.00
2022-08-19T05:20:14.380Z,6.95
2022-08-19T05:22:41.675Z,10.77
2022-08-19T05:25:13.068Z,7.68
2022-08-19T05:27:40.267Z,6.20
2022-08-19T05:30:10.688Z,7.68
2022-08-19T05:32:37.302Z,40.80
2022-08-19T05:35:04.599Z,24.77
2022-08-19T05:37:31.194Z,35.25
2022-08-19T05:39:57.866Z,30.92
2022-08-19T05:42:24.550Z,22.80
2022-08-19T05:44:51.399Z,29.85
2022-08-19T05:47:19.804Z,24.65
2022-08-19T05:49:46.528Z,23.23
2022-08-19T05:52:14.464Z,21.15
2022-08-19T05:54:51.063Z,23.02
2022-08-19T05:57:19.001Z,21.23
2022-08-19T05:59:47.189Z,17.27
2022-08-19T06:02:17.738Z,13.25
2022-08-19T06:04:44.364Z,18.70
2022-08-19T06:07:12.863Z,14.55
2022-08-19T06:09:40.259Z,15.75
2022-08-19T06:12:07.400Z,13.50
2022-08-19T06:14:35.522Z,15.32
2022-08-19T06:17:07.646Z,15.07
2022-08-19T06:19:34.647Z,12.15
2022-08-19T06:22:07.631Z,13.23
2022-08-19T06:24:34.202Z,12.63
2022-08-19T06:27:01.505Z,10.98
2022-08-19T06:29:28.697Z,11.35
2022-08-19T06:31:57.283Z,9.95
2022-08-19T06:34:32.024Z,12.05
2022-08-19T06:37:02.102Z,10.93
2022-08-19T06:39:34.276Z,11.27
2022-08-19T06:42:01.680Z,10.77
2022-08-19T06:44:29.217Z,11.85
2022-08-19T06:46:58.436Z,13.20
2022-08-19T06:49:26.027Z,9.13
2022-08-19T06:51:52.657Z,10.00
2022-08-19T06:54:22.040Z,10.38
2022-08-19T06:56:50.305Z,10.63
2022-08-19T06:59:23.270Z,12.20
2022-08-19T07:01:51.909Z,11.20
2022-08-19T07:04:20.608Z,9.05
2022-08-19T07:06:54.010Z,9.60
2022-08-19T07:09:21.783Z,7.05
2022-08-19T07:11:50.301Z,8.05
2022-08-19T07:14:19.858Z,8.85
2022-08-19T07:16:47.987Z,9.23
2022-08-19T07:19:16.250Z,8.82
2022-08-19T07:21:47.675Z,12.27
2022-08-19T07:24:14.356Z,8.18
2022-08-19T07:26:42.321Z,9.48
2022-08-19T07:29:09.331Z,7.30
2022-08-19T07:31:38.877Z,7.57
2022-08-19T07:34:09.424Z,8.27
2022-08-19T07:36:38.596Z,8.57
2022-08-19T07:39:08.343Z,12.80
2022-08-19T07:41:36.320Z,12.55
2022-08-19T07:44:04.689Z,10.15
2022-08-19T07:46:38.967Z,9.02
2022-08-19T07:49:05.947Z,8.15
2022-08-19T07:51:36.057Z,11.82
2022-08-19T07:54:03.404Z,8.57
2022-08-19T07:56:30.128Z,10.80
2022-08-19T08:01:28.766Z,8.60
2022-08-19T08:04:15.136Z,11.27
2022-08-19T08:07:00.447Z,7.75
2022-08-19T08:09:35.546Z,9.48
2022-08-19T08:12:32.787Z,7.30
2022-08-19T08:14:57.072Z,7.50
2022-08-19T08:17:31.183Z,6.95
2022-08-19T08:20:14.320Z,10.68
2022-08-19T08:23:02.959Z,8.10
2022-08-19T08:25:32.329Z,8.32
2022-08-19T08:28:01.164Z,8.57
2022-08-19T08:30:32.540Z,6.85
2022-08-19T08:32:59.610Z,7.82
2022-08-19T08:35:26.204Z,8.88
2022-08-19T08:37:54.534Z,7.00
2022-08-19T08:41:05.372Z,9.48
2022-08-19T08:43:34.934Z,8.95
2022-08-19T08:46:05.431Z,7.22
2022-08-19T08:48:39.450Z,8.45
2022-08-19T08:51:11.000Z,6.60
2022-08-19T08:53:41.350Z,6.75
2022-08-19T08:56:09.439Z,6.95
2022-08-19T08:59:02.725Z,7.00
2022-08-19T09:01:30.481Z,7.10
2022-08-19T09:03:57.644Z,8.50
2022-08-19T09:06:41.791Z,7.72
2022-08-19T09:09:20.460Z,6.45
2022-08-19T09:12:04.670Z,6.57
2022-08-19T09:14:50.763Z,9.38
2022-08-19T09:17:18.915Z,7.32
2022-08-19T09:19:57.534Z,7.28
2022-08-19T09:22:26.105Z,8.70
2022-08-19T09:24:54.547Z,10.75
2022-08-19T09:27:21.883Z,8.52
2022-08-19T09:30:09.435Z,11.20
2022-08-19T09:32:36.015Z,9.95
2022-08-19T09:35:02.670Z,10.75
2022-08-19T09:37:30.299Z,11.43
2022-08-19T09:39:56.985Z,11.80
2022-08-19T09:42:30.518Z,9.85
2022-08-19T09:45:02.076Z,13.40
2022-08-19T09:47:31.576Z,11.75
2022-08-19T09:49:59.028Z,11.12
2022-08-19T09:52:26.056Z,10.98
2022-08-19T09:54:59.658Z,9.52
2022-08-19T09:57:26.219Z,11.55
2022-08-19T09:59:52.841Z,7.18
2022-08-19T10:02:22.155Z,10.68
2022-08-19T10:05:07.837Z,18.30
2022-08-19T10:07:36.537Z,10.05
2022-08-19T10:10:05.366Z,8.27
2022-08-19T10:12:35.001Z,11.30
2022-08-19T10:15:04.471Z,7.68
2022-08-19T10:17:31.656Z,10.23
2022-08-19T10:20:00.858Z,11.77
2022-08-19T10:22:27.593Z,9.98
2022-08-19T10:24:54.252Z,6.87
2022-08-19T10:27:20.829Z,9.30
2022-08-19T10:29:48.493Z,10.35
2022-08-19T10:32:15.191Z,8.27
2022-08-19T10:34:48.087Z,6.45
2022-08-19T10:37:18.085Z,9.90
2022-08-19T10:39:50.904Z,7.68
2022-08-19T10:42:19.465Z,7.60
2022-08-19T10:44:47.526Z,8.50
2022-08-19T10:47:24.306Z,7.03
2022-08-19T10:50:12.278Z,6.57
2022-08-19T10:52:49.580Z,6.35
2022-08-19T10:55:35.871Z,8.82
2022-08-19T10:58:02.953Z,8.40
2022-08-19T11:00:31.792Z,5.37
2022-08-19T11:02:58.481Z,11.35
2022-08-19T11:05:25.446Z,8.93
2022-08-19T11:07:52.761Z,6.03
2022-08-19T11:10:21.773Z,8.73
2022-08-19T11:12:49.319Z,6.53
2022-08-19T11:15:16.175Z,8.07
2022-08-19T11:17:43.761Z,7.75
2022-08-19T11:20:13.649Z,6.45
2022-08-19T11:22:41.895Z,7.07
2022-08-19T11:25:09.866Z,7.78
2022-08-19T11:27:42.703Z,6.78
2022-08-19T11:30:12.719Z,8.68
2022-08-19T11:32:47.127Z,7.20
2022-08-19T11:35:16.865Z,6.95
2022-08-19T11:37:43.427Z,9.15
2022-08-19T11:40:10.666Z,9.90
2022-08-19T11:42:55.788Z,6.40
2022-08-19T11:45:23.143Z,6.12
2022-08-19T11:47:49.802Z,9.25
2022-08-19T11:50:17.210Z,7.80
2022-08-19T11:52:45.127Z,5.53
2022-08-19T11:55:12.932Z,7.22
2022-08-19T11:57:39.793Z,7.95
2022-08-19T12:00:08.123Z,6.53
2022-08-19T12:02:34.777Z,5.87
2022-08-19T12:05:03.938Z,7.62
2022-08-19T12:07:34.157Z,7.37
2022-08-19T12:10:01.134Z,6.28
2022-08-19T12:12:28.047Z,7.45
2022-08-19T12:14:57.624Z,8.80
2022-08-19T12:17:26.071Z,6.57
2022-08-19T12:19:52.677Z,6.72
2022-08-19T12:22:19.484Z,5.90
2022-08-19T12:24:46.048Z,6.78
2022-08-19T12:27:13.084Z,6.78
2022-08-19T12:29:39.813Z,5.87
2022-08-19T12:32:06.431Z,7.20
2022-08-19T12:34:33.353Z,7.47
2022-08-19T12:37:02.067Z,7.05
2022-08-19T12:39:28.632Z,7.25
2022-08-19T12:41:55.298Z,8.32
2022-08-19T12:44:29.370Z,7.55
2022-08-19T12:46:59.147Z,7.43
2022-08-19T12:49:51.996Z,6.10
2022-08-19T12:52:16.100Z,6.40
2022-08-19T12:54:44.129Z,7.03
2022-08-19T12:57:13.972Z,7.47
2022-08-19T12:59:40.544Z,6.65
2022-08-19T13:02:07.236Z,7.15
2022-08-19T13:04:37.204Z,7.18
2022-08-19T13:07:04.064Z,7.53
2022-08-19T13:09:30.624Z,6.50
2022-08-19T13:11:57.812Z,6.30
2022-08-19T13:14:24.400Z,5.53
2022-08-19T13:16:53.629Z,6.70
2022-08-19T13:19:22.007Z,6.20
2022-08-19T13:21:50.621Z,6.95
2022-08-19T13:24:17.344Z,5.80
2022-08-19T13:26:44.325Z,5.72
2022-08-19T13:29:29.777Z,7.87
2022-08-19T13:32:18.527Z,6.50
2022-08-19T13:34:47.568Z,6.95
2022-08-19T13:37:14.132Z,9.68
2022-08-19T13:39:40.765Z,8.82
2022-08-19T13:42:08.255Z,8.55
2022-08-19T13:44:34.850Z,7.62
2022-08-19T13:47:07.678Z,7.85
2022-08-19T13:49:36.913Z,5.70
2022-08-19T13:52:05.159Z,6.90
2022-08-19T13:54:32.662Z,6.57
2022-08-19T13:56:59.295Z,5.47
2022-08-19T13:59:28.354Z,5.60
2022-08-19T14:01:59.171Z,6.87
2022-08-19T14:04:25.742Z,7.62
2022-08-19T14:06:52.335Z,6.12
2022-08-19T14:09:20.062Z,7.35
2022-08-19T14:11:47.546Z,7.30
2022-08-19T14:14:20.003Z,5.80
2022-08-19T14:16:46.635Z,5.25
2022-08-19T14:19:13.255Z,7.20
2022-08-19T14:21:41.728Z,6.05
2022-08-19T14:24:11.435Z,10.23
2022-08-19T14:26:38.058Z,5.55
2022-08-19T14:29:04.618Z,6.45
2022-08-19T14:31:31.207Z,8.93
2022-08-19T14:33:57.764Z,5.47
2022-08-19T14:36:24.357Z,8.82
2022-08-19T14:38:51.059Z,5.90
2022-08-19T14:41:20.404Z,6.80
2022-08-19T14:43:48.002Z,5.75
2022-08-19T14:46:16.491Z,5.85
2022-08-19T14:48:43.773Z,6.43
2022-08-19T14:51:10.373Z,6.22
2022-08-19T14:53:37.025Z,5.97
2022-08-19T14:56:14.706Z,5.90
2022-08-19T14:58:42.106Z,7.28
2022-08-19T15:01:08.786Z,7.20
2022-08-19T15:03:35.363Z,6.75
2022-08-19T15:06:02.524Z,6.60
2022-08-19T15:08:29.822Z,6.80
2022-08-19T15:10:56.893Z,6.25
2022-08-19T15:13:23.554Z,5.72
2022-08-19T15:15:50.180Z,5.85
2022-08-19T15:18:16.760Z,7.32
2022-08-19T15:20:44.470Z,6.47
2022-08-19T15:23:15.309Z,6.90
2022-08-19T15:25:42.651Z,6.32
2022-08-19T15:28:12.023Z,6.47
2022-08-19T15:30:38.919Z,5.32
2022-08-19T15:33:05.664Z,5.78
2022-08-19T15:35:32.369Z,5.32
2022-08-19T15:37:58.965Z,5.60
2022-08-19T15:40:26.361Z,6.05
2022-08-19T15:42:54.021Z,5.62
2022-08-19T15:45:21.461Z,6.72
2022-08-19T15:47:48.202Z,6.62
2022-08-19T15:50:21.083Z,5.68
2022-08-19T15:52:49.985Z,6.93
2022-08-19T15:55:32.319Z,5.75
2022-08-19T15:58:32.787Z,5.85
2022-08-19T16:01:23.536Z,4.85
2022-08-19T16:04:11.322Z,5.95
2022-08-19T16:06:52.674Z,4.40
2022-08-19T16:09:26.464Z,5.30
2022-08-19T16:11:56.837Z,5.57
2022-08-19T16:14:24.049Z,6.60
2022-08-19T16:16:50.907Z,6.03
2022-08-19T16:19:18.062Z,4.37
2022-08-19T16:21:46.590Z,5.78
2022-08-19T16:24:13.742Z,4.95
2022-08-19T16:26:40.856Z,6.18
2022-08-19T16:29:12.830Z,5.00
2022-08-19T16:31:40.908Z,5.72
2022-08-19T16:34:07.798Z,6.05
2022-08-19T16:36:34.439Z,5.95
2022-08-19T16:39:01.058Z,5.85
2022-08-19T16:41:28.004Z,5.22
2022-08-19T16:43:55.150Z,5.30
2022-08-19T16:46:22.617Z,5.97
2022-08-19T16:48:49.434Z,4.90
2022-08-19T16:51:16.197Z,5.55
2022-08-19T16:53:43.130Z,6.72
2022-08-19T16:56:10.851Z,6.43
2022-08-19T16:58:37.444Z,5.28
2022-08-19T17:01:05.933Z,6.68
2022-08-19T17:03:36.280Z,5.00
2022-08-19T17:06:17.874Z,4.62
2022-08-19T17:08:49.131Z,6.00
2022-08-19T17:11:18.525Z,5.90
2022-08-19T17:13:45.408Z,5.30
2022-08-19T17:16:15.213Z,6.05
2022-08-19T17:18:41.815Z,5.00
2022-08-19T17:21:08.390Z,6.90
2022-08-19T17:23:42.291Z,7.72
2022-08-19T17:26:14.066Z,6.00
2022-08-19T17:28:44.966Z,5.30
2022-08-19T17:31:11.659Z,6.80
2022-08-19T17:33:41.362Z,5.20
2022-08-19T17:36:08.633Z,6.65
2022-08-19T17:38:35.867Z,4.80
2022-08-19T17:41:05.953Z,5.28
2022-08-19T17:43:40.055Z,4.53
2022-08-19T17:46:11.009Z,6.25
2022-08-19T17:48:40.616Z,5.10
2022-08-19T17:51:21.270Z,5.82
2022-08-19T17:53:49.416Z,5.32
2022-08-19T17:56:15.988Z,7.30
2022-08-19T17:58:42.607Z,5.75
2022-08-19T18:01:13.754Z,5.32
2022-08-19T18:03:40.685Z,4.93
2022-08-19T18:06:08.587Z,6.28
2022-08-19T18:08:38.887Z,4.40
2022-08-19T18:11:06.695Z,4.85
2022-08-19T18:13:33.282Z,5.70
2022-08-19T18:15:59.936Z,4.60
2022-08-19T18:18:28.357Z,5.18
2022-08-19T18:20:56.039Z,5.15
2022-08-19T18:23:44.151Z,4.47
2022-08-19T18:26:09.410Z,4.57
2022-08-19T18:28:35.994Z,5.70
2022-08-19T18:31:04.239Z,4.68
2022-08-19T18:33:30.842Z,6.25
2022-08-19T18:35:57.441Z,5.87
2022-08-19T18:38:42.762Z,6.25
2022-08-19T18:44:13.503Z,6.78
2022-08-19T18:46:58.863Z,6.28
2022-08-19T18:49:27.123Z,3.92
2022-08-19T18:51:53.968Z,5.47
2022-08-19T18:54:20.583Z,6.22
2022-08-19T18:56:48.437Z,6.12
2022-08-19T18:59:15.429Z,5.87
2022-08-19T19:01:48.232Z,4.97
2022-08-19T19:04:14.819Z,8.13
2022-08-19T19:06:42.572Z,6.95
2022-08-19T19:09:11.374Z,4.80
2022-08-19T19:11:39.961Z,5.75
2022-08-19T19:14:19.182Z,5.47
2022-08-19T19:16:49.801Z,4.22
2022-08-19T19:19:17.344Z,7.32
2022-08-19T19:21:47.618Z,5.32
2022-08-19T19:24:20.527Z,5.07
2022-08-19T19:26:48.212Z,8.63
2022-08-19T19:29:14.851Z,6.47
2022-08-19T19:31:42.668Z,6.55
2022-08-19T19:34:29.635Z,6.32
2022-08-19T19:36:56.351Z,6.82
2022-08-19T19:39:45.353Z,5.95
2022-08-19T19:42:12.413Z,6.30
2022-08-19T19:44:47.185Z,6.00
2022-08-19T19:47:15.122Z,7.45
2022-08-19T19:50:03.826Z,6.57
2022-08-19T19:52:28.579Z,7.07
2022-08-19T19:54:56.706Z,5.72
2022-08-19T19:57:26.793Z,6.75
2022-08-19T19:59:54.261Z,7.78
2022-08-19T20:02:21.991Z,8.30
2022-08-19T20:04:49.530Z,6.57
2022-08-19T20:07:16.114Z,6.47
2022-08-19T20:09:58.748Z,6.18
2022-08-19T20:12:26.162Z,5.12
2022-08-19T20:14:52.737Z,6.82
2022-08-19T20:17:20.764Z,6.30
2022-08-19T20:19:47.771Z,8.35
2022-08-19T20:22:14.470Z,6.37
2022-08-19T20:24:42.628Z,7.85
2022-08-19T20:27:10.704Z,5.72
2022-08-19T20:29:38.796Z,9.02
2022-08-19T20:32:09.165Z,8.23
2022-08-19T20:34:35.908Z,8.00
2022-08-19T20:37:02.512Z,6.80
2022-08-19T20:39:29.072Z,7.75
2022-08-19T20:41:56.510Z,9.65
2022-08-19T20:44:24.784Z,6.72
2022-08-19T20:46:54.716Z,7.87
2022-08-19T20:49:23.056Z,7.28
2022-08-19T20:51:54.557Z,8.85
2022-08-19T20:54:21.387Z,8.63
2022-08-19T20:56:47.955Z,9.85
2022-08-19T20:59:14.538Z,6.03
2022-08-19T21:01:41.147Z,9.88
2022-08-19T21:04:07.728Z,5.47
2022-08-19T21:06:34.291Z,10.80
2022-08-19T21:09:00.890Z,6.75
2022-08-19T21:11:27.512Z,7.97
2022-08-19T21:13:54.179Z,5.82
2022-08-19T21:16:20.754Z,8.13
2022-08-19T21:18:50.444Z,7.65
2022-08-19T21:21:17.051Z,8.45
2022-08-19T21:23:44.182Z,6.07
2022-08-19T21:26:10.856Z,7.22
2022-08-19T21:28:37.432Z,6.93
2022-08-19T21:31:05.377Z,9.27
2022-08-19T21:33:32.948Z,6.40
2022-08-19T21:36:00.134Z,7.80
2022-08-19T21:38:26.964Z,7.85
2022-08-19T21:40:53.575Z,8.52
2022-08-19T21:43:20.180Z,5.62
2022-08-19T21:45:47.566Z,10.38
2022-08-19T21:48:14.758Z,8.30
2022-08-19T21:50:48.243Z,9.70
2022-08-19T21:53:18.292Z,9.23
2022-08-19T21:55:46.108Z,5.43
2022-08-19T21:58:19.625Z,7.82
2022-08-19T22:03:22.021Z,7.80
2022-08-19T22:05:48.647Z,8.05
2022-08-19T22:08:15.285Z,7.18
2022-08-19T22:10:41.873Z,6.75
2022-08-19T22:13:09.482Z,8.70
2022-08-19T22:15:36.104Z,6.75
2022-08-19T22:18:02.750Z,9.80
2022-08-19T22:20:30.951Z,6.18
2022-08-19T22:23:00.245Z,8.57
2022-08-19T22:25:32.275Z,6.82
2022-08-19T22:28:02.575Z,7.55
2022-08-19T22:30:30.954Z,8.02
2022-08-19T22:33:01.343Z,6.07
2022-08-19T22:35:31.272Z,6.68
2022-08-19T22:37:59.107Z,6.12
2022-08-19T22:40:26.846Z,6.37
2022-08-19T22:43:00.619Z,6.37
2022-08-19T22:45:27.448Z,7.03
2022-08-19T22:47:54.337Z,8.35
2022-08-19T22:50:20.960Z,5.82
2022-08-19T22:52:51.775Z,7.35
2022-08-19T22:55:18.659Z,6.68
2022-08-19T22:57:45.247Z,6.72
2022-08-19T23:00:13.362Z,9.52
2022-08-19T23:02:51.662Z,6.93
2022-08-19T23:05:18.904Z,6.95
2022-08-19T23:07:52.814Z,8.45
2022-08-19T23:10:27.691Z,7.32
2022-08-19T23:12:56.319Z,7.25
2022-08-19T23:15:25.549Z,6.70
2022-08-19T23:17:52.878Z,7.32
2022-08-19T23:20:19.916Z,6.10
2022-08-19T23:22:50.939Z,10.93
2022-08-19T23:25:21.447Z,5.82
2022-08-19T23:28:06.720Z,5.85
2022-08-19T23:30:35.459Z,6.97
2022-08-19T23:33:12.692Z,6.85
2022-08-19T23:35:40.688Z,6.20
2022-08-19T23:38:07.923Z,6.50
2022-08-19T23:40:36.054Z,6.87
2022-08-19T23:43:02.896Z,9.18
2022-08-19T23:45:38.141Z,6.37
2022-08-19T23:48:06.132Z,6.20
2022-08-19T23:50:32.770Z,5.95
2022-08-19T23:52:59.666Z,7.93
2022-08-19T23:55:29.651Z,7.28
2022-08-19T23:57:56.411Z,6.05
